sensor_id;sensor_type;location;lat;lon;timestamp;P1;durP1;ratioP1;P2;durP2;ratioP2
24335;SDS011;33098;52.400;16.880;2023-07-29T00:02:26;4.80;;;3.80;;
24335;SDS011;33098;52.400;16.880;2023-07-29T00:07:22;5.80;;;3.40;;
24335;SDS011;33098;52.400;16.880;2023-07-29T00:09:50;4.40;;;3.80;;
24335;SDS011;33098;52.400;16.880;2023-07-29T00:12:16;3.90;;;3.50;;
24335;SDS011;33098;52.400;16.880;2023-07-29T00:14:43;4.10;;;3.50;;
24335;SDS011;33098;52.400;16.880;2023-07-29T00:17:10;4.10;;;3.70;;
24335;SDS011;33098;52.400;16.880;2023-07-29T00:19:36;4.30;;;3.70;;
24335;SDS011;33098;52.400;16.880;2023-07-29T00:22:05;5.10;;;3.90;;
24335;SDS011;33098;52.400;16.880;2023-07-29T00:24:35;5.40;;;3.60;;
24335;SDS011;33098;52.400;16.880;2023-07-29T00:27:01;5.30;;;4.10;;
24335;SDS011;33098;52.400;16.880;2023-07-29T00:29:31;5.50;;;3.90;;
24335;SDS011;33098;52.400;16.880;2023-07-29T00:31:57;4.70;;;3.90;;
24335;SDS011;33098;52.400;16.880;2023-07-29T00:34:24;4.30;;;3.70;;
24335;SDS011;33098;52.400;16.880;2023-07-29T00:36:51;4.90;;;3.50;;
24335;SDS011;33098;52.400;16.880;2023-07-29T00:39:19;5.50;;;4.00;;
24335;SDS011;33098;52.400;16.880;2023-07-29T00:41:46;4.50;;;3.80;;
24335;SDS011;33098;52.400;16.880;2023-07-29T00:44:13;4.40;;;3.90;;
24335;SDS011;33098;52.400;16.880;2023-07-29T00:46:40;5.10;;;4.20;;
24335;SDS011;33098;52.400;16.880;2023-07-29T00:49:08;6.40;;;4.20;;
24335;SDS011;33098;52.400;16.880;2023-07-29T00:51:35;5.50;;;4.30;;
24335;SDS011;33098;52.400;16.880;2023-07-29T00:54:02;4.10;;;3.70;;
24335;SDS011;33098;52.400;16.880;2023-07-29T00:56:28;4.90;;;3.80;;
24335;SDS011;33098;52.400;16.880;2023-07-29T00:58:55;6.20;;;3.90;;
24335;SDS011;33098;52.400;16.880;2023-07-29T01:01:26;6.00;;;4.10;;
24335;SDS011;33098;52.400;16.880;2023-07-29T01:12:42;5.70;;;4.20;;
24335;SDS011;33098;52.400;16.880;2023-07-29T01:15:22;5.00;;;3.80;;
24335;SDS011;33098;52.400;16.880;2023-07-29T01:21:07;5.20;;;3.90;;
24335;SDS011;33098;52.400;16.880;2023-07-29T01:23:35;6.70;;;4.00;;
24335;SDS011;33098;52.400;16.880;2023-07-29T01:26:02;4.10;;;3.70;;
24335;SDS011;33098;52.400;16.880;2023-07-29T01:28:30;4.00;;;3.60;;
24335;SDS011;33098;52.400;16.880;2023-07-29T01:31:03;4.40;;;4.00;;
24335;SDS011;33098;52.400;16.880;2023-07-29T01:36:42;5.00;;;3.90;;
24335;SDS011;33098;52.400;16.880;2023-07-29T01:39:16;4.60;;;4.10;;
24335;SDS011;33098;52.400;16.880;2023-07-29T01:41:44;4.90;;;3.90;;
24335;SDS011;33098;52.400;16.880;2023-07-29T01:44:11;7.90;;;4.20;;
24335;SDS011;33098;52.400;16.880;2023-07-29T01:46:44;5.80;;;4.30;;
24335;SDS011;33098;52.400;16.880;2023-07-29T01:51:41;4.40;;;4.00;;
24335;SDS011;33098;52.400;16.880;2023-07-29T01:54:09;4.60;;;3.90;;
24335;SDS011;33098;52.400;16.880;2023-07-29T01:56:36;4.70;;;4.20;;
24335;SDS011;33098;52.400;16.880;2023-07-29T01:59:03;6.20;;;4.30;;
24335;SDS011;33098;52.400;16.880;2023-07-29T02:01:30;5.60;;;4.20;;
24335;SDS011;33098;52.400;16.880;2023-07-29T02:03:59;4.10;;;3.70;;
24335;SDS011;33098;52.400;16.880;2023-07-29T02:06:26;5.10;;;4.00;;
24335;SDS011;33098;52.400;16.880;2023-07-29T02:08:58;4.50;;;3.90;;
24335;SDS011;33098;52.400;16.880;2023-07-29T02:11:25;4.90;;;3.80;;
24335;SDS011;33098;52.400;16.880;2023-07-29T02:13:56;4.10;;;3.80;;
24335;SDS011;33098;52.400;16.880;2023-07-29T02:16:23;5.10;;;4.10;;
24335;SDS011;33098;52.400;16.880;2023-07-29T02:18:50;4.30;;;3.80;;
24335;SDS011;33098;52.400;16.880;2023-07-29T02:21:17;5.50;;;3.90;;
24335;SDS011;33098;52.400;16.880;2023-07-29T02:23:46;4.40;;;3.80;;
24335;SDS011;33098;52.400;16.880;2023-07-29T02:26:13;5.30;;;4.20;;
24335;SDS011;33098;52.400;16.880;2023-07-29T02:28:40;5.40;;;4.30;;
24335;SDS011;33098;52.400;16.880;2023-07-29T02:33:44;5.00;;;4.50;;
24335;SDS011;33098;52.400;16.880;2023-07-29T02:36:11;6.80;;;4.40;;
24335;SDS011;33098;52.400;16.880;2023-07-29T02:38:43;5.80;;;3.80;;
24335;SDS011;33098;52.400;16.880;2023-07-29T02:41:10;5.10;;;4.00;;
24335;SDS011;33098;52.400;16.880;2023-07-29T02:43:44;4.30;;;3.80;;
24335;SDS011;33098;52.400;16.880;2023-07-29T02:46:16;4.40;;;4.00;;
24335;SDS011;33098;52.400;16.880;2023-07-29T02:48:44;5.00;;;4.30;;
24335;SDS011;33098;52.400;16.880;2023-07-29T02:53:41;5.80;;;4.50;;
24335;SDS011;33098;52.400;16.880;2023-07-29T02:56:07;6.10;;;4.60;;
24335;SDS011;33098;52.400;16.880;2023-07-29T02:58:36;5.10;;;4.50;;
24335;SDS011;33098;52.400;16.880;2023-07-29T03:01:07;4.40;;;4.00;;
24335;SDS011;33098;52.400;16.880;2023-07-29T03:03:34;7.40;;;4.70;;
24335;SDS011;33098;52.400;16.880;2023-07-29T03:06:02;6.10;;;4.70;;
24335;SDS011;33098;52.400;16.880;2023-07-29T03:08:34;9.50;;;5.80;;
24335;SDS011;33098;52.400;16.880;2023-07-29T03:11:06;6.70;;;5.50;;
24335;SDS011;33098;52.400;16.880;2023-07-29T03:13:38;6.60;;;4.80;;
24335;SDS011;33098;52.400;16.880;2023-07-29T03:16:05;6.40;;;5.30;;
24335;SDS011;33098;52.400;16.880;2023-07-29T03:18:33;7.60;;;5.70;;
24335;SDS011;33098;52.400;16.880;2023-07-29T03:21:00;8.00;;;5.80;;
24335;SDS011;33098;52.400;16.880;2023-07-29T03:23:31;6.60;;;5.60;;
24335;SDS011;33098;52.400;16.880;2023-07-29T03:25:59;8.20;;;5.30;;
24335;SDS011;33098;52.400;16.880;2023-07-29T03:28:28;8.30;;;5.90;;
24335;SDS011;33098;52.400;16.880;2023-07-29T03:30:59;8.00;;;5.90;;
24335;SDS011;33098;52.400;16.880;2023-07-29T03:33:26;7.90;;;5.60;;
24335;SDS011;33098;52.400;16.880;2023-07-29T03:35:53;7.60;;;5.40;;
24335;SDS011;33098;52.400;16.880;2023-07-29T03:38:19;6.60;;;5.30;;
24335;SDS011;33098;52.400;16.880;2023-07-29T03:40:46;8.60;;;5.80;;
24335;SDS011;33098;52.400;16.880;2023-07-29T03:43:16;7.90;;;5.30;;
24335;SDS011;33098;52.400;16.880;2023-07-29T03:45:46;7.90;;;5.90;;
24335;SDS011;33098;52.400;16.880;2023-07-29T03:48:13;6.10;;;5.50;;
24335;SDS011;33098;52.400;16.880;2023-07-29T03:50:41;8.50;;;5.90;;
24335;SDS011;33098;52.400;16.880;2023-07-29T03:53:07;8.70;;;5.70;;
24335;SDS011;33098;52.400;16.880;2023-07-29T03:55:36;7.80;;;5.50;;
24335;SDS011;33098;52.400;16.880;2023-07-29T03:58:03;6.00;;;5.20;;
24335;SDS011;33098;52.400;16.880;2023-07-29T04:00:30;7.90;;;5.80;;
24335;SDS011;33098;52.400;16.880;2023-07-29T04:02:57;7.50;;;5.50;;
24335;SDS011;33098;52.400;16.880;2023-07-29T04:05:24;9.20;;;5.60;;
24335;SDS011;33098;52.400;16.880;2023-07-29T04:07:51;6.00;;;5.40;;
24335;SDS011;33098;52.400;16.880;2023-07-29T04:10:19;7.00;;;5.70;;
24335;SDS011;33098;52.400;16.880;2023-07-29T04:12:50;9.00;;;5.60;;
24335;SDS011;33098;52.400;16.880;2023-07-29T04:15:16;6.60;;;5.90;;
24335;SDS011;33098;52.400;16.880;2023-07-29T04:17:43;6.90;;;5.50;;
24335;SDS011;33098;52.400;16.880;2023-07-29T04:20:10;6.10;;;5.50;;
24335;SDS011;33098;52.400;16.880;2023-07-29T04:22:38;6.20;;;5.50;;
24335;SDS011;33098;52.400;16.880;2023-07-29T04:25:04;7.40;;;6.00;;
24335;SDS011;33098;52.400;16.880;2023-07-29T04:27:35;7.30;;;6.00;;
24335;SDS011;33098;52.400;16.880;2023-07-29T04:30:05;6.80;;;6.20;;
24335;SDS011;33098;52.400;16.880;2023-07-29T04:32:35;6.80;;;6.10;;
24335;SDS011;33098;52.400;16.880;2023-07-29T04:35:02;6.30;;;5.60;;
24335;SDS011;33098;52.400;16.880;2023-07-29T04:37:29;7.70;;;6.30;;
24335;SDS011;33098;52.400;16.880;2023-07-29T04:39:56;6.60;;;5.70;;
24335;SDS011;33098;52.400;16.880;2023-07-29T04:42:29;8.40;;;6.50;;
24335;SDS011;33098;52.400;16.880;2023-07-29T04:44:56;8.00;;;6.30;;
24335;SDS011;33098;52.400;16.880;2023-07-29T04:47:22;6.30;;;5.60;;
24335;SDS011;33098;52.400;16.880;2023-07-29T04:49:49;7.30;;;6.50;;
24335;SDS011;33098;52.400;16.880;2023-07-29T04:52:19;9.90;;;7.60;;
24335;SDS011;33098;52.400;16.880;2023-07-29T04:54:47;9.00;;;7.20;;
24335;SDS011;33098;52.400;16.880;2023-07-29T04:57:13;9.20;;;7.80;;
24335;SDS011;33098;52.400;16.880;2023-07-29T04:59:40;10.60;;;9.50;;
24335;SDS011;33098;52.400;16.880;2023-07-29T05:02:06;10.50;;;9.30;;
24335;SDS011;33098;52.400;16.880;2023-07-29T05:04:33;13.20;;;10.00;;
24335;SDS011;33098;52.400;16.880;2023-07-29T05:07:00;11.20;;;9.60;;
24335;SDS011;33098;52.400;16.880;2023-07-29T05:09:26;12.30;;;10.30;;
24335;SDS011;33098;52.400;16.880;2023-07-29T05:11:53;13.20;;;9.80;;
24335;SDS011;33098;52.400;16.880;2023-07-29T05:14:22;15.00;;;10.70;;
24335;SDS011;33098;52.400;16.880;2023-07-29T05:16:49;14.10;;;11.30;;
24335;SDS011;33098;52.400;16.880;2023-07-29T05:19:16;15.00;;;10.80;;
24335;SDS011;33098;52.400;16.880;2023-07-29T05:21:43;13.50;;;10.70;;
24335;SDS011;33098;52.400;16.880;2023-07-29T05:24:09;14.50;;;10.80;;
24335;SDS011;33098;52.400;16.880;2023-07-29T05:26:36;12.60;;;10.80;;
24335;SDS011;33098;52.400;16.880;2023-07-29T05:29:03;14.00;;;10.30;;
24335;SDS011;33098;52.400;16.880;2023-07-29T05:31:30;14.10;;;11.00;;
24335;SDS011;33098;52.400;16.880;2023-07-29T05:33:56;15.10;;;11.20;;
24335;SDS011;33098;52.400;16.880;2023-07-29T05:36:25;15.30;;;11.40;;
24335;SDS011;33098;52.400;16.880;2023-07-29T05:38:52;17.20;;;12.10;;
24335;SDS011;33098;52.400;16.880;2023-07-29T05:41:18;17.10;;;11.30;;
24335;SDS011;33098;52.400;16.880;2023-07-29T05:43:45;16.60;;;11.30;;
24335;SDS011;33098;52.400;16.880;2023-07-29T05:46:12;14.50;;;11.40;;
24335;SDS011;33098;52.400;16.880;2023-07-29T05:48:38;17.50;;;12.10;;
24335;SDS011;33098;52.400;16.880;2023-07-29T05:51:05;16.50;;;12.00;;
24335;SDS011;33098;52.400;16.880;2023-07-29T05:53:33;17.80;;;12.20;;
24335;SDS011;33098;52.400;16.880;2023-07-29T05:56:00;18.20;;;12.60;;
24335;SDS011;33098;52.400;16.880;2023-07-29T05:58:32;20.20;;;13.30;;
24335;SDS011;33098;52.400;16.880;2023-07-29T06:00:59;16.60;;;13.00;;
24335;SDS011;33098;52.400;16.880;2023-07-29T06:03:26;17.50;;;12.70;;
24335;SDS011;33098;52.400;16.880;2023-07-29T06:05:53;17.20;;;13.70;;
24335;SDS011;33098;52.400;16.880;2023-07-29T06:08:21;15.80;;;12.50;;
24335;SDS011;33098;52.400;16.880;2023-07-29T06:10:48;16.70;;;13.70;;
24335;SDS011;33098;52.400;16.880;2023-07-29T06:13:14;17.20;;;13.40;;
24335;SDS011;33098;52.400;16.880;2023-07-29T06:15:44;18.00;;;13.50;;
24335;SDS011;33098;52.400;16.880;2023-07-29T06:18:11;18.40;;;14.30;;
24335;SDS011;33098;52.400;16.880;2023-07-29T06:20:38;17.00;;;13.60;;
24335;SDS011;33098;52.400;16.880;2023-07-29T06:23:05;14.70;;;12.00;;
24335;SDS011;33098;52.400;16.880;2023-07-29T06:25:32;16.40;;;12.70;;
24335;SDS011;33098;52.400;16.880;2023-07-29T06:27:59;13.60;;;11.60;;
24335;SDS011;33098;52.400;16.880;2023-07-29T06:30:26;12.90;;;11.50;;
24335;SDS011;33098;52.400;16.880;2023-07-29T06:32:53;13.90;;;12.40;;
24335;SDS011;33098;52.400;16.880;2023-07-29T06:35:19;14.00;;;12.40;;
24335;SDS011;33098;52.400;16.880;2023-07-29T06:37:46;12.70;;;11.40;;
24335;SDS011;33098;52.400;16.880;2023-07-29T06:40:13;12.90;;;11.10;;
24335;SDS011;33098;52.400;16.880;2023-07-29T06:42:41;13.90;;;11.60;;
24335;SDS011;33098;52.400;16.880;2023-07-29T06:45:07;12.10;;;10.80;;
24335;SDS011;33098;52.400;16.880;2023-07-29T06:47:35;13.00;;;10.90;;
24335;SDS011;33098;52.400;16.880;2023-07-29T06:50:01;13.40;;;10.50;;
24335;SDS011;33098;52.400;16.880;2023-07-29T06:52:28;11.10;;;10.00;;
24335;SDS011;33098;52.400;16.880;2023-07-29T06:54:58;11.20;;;10.00;;
24335;SDS011;33098;52.400;16.880;2023-07-29T06:57:24;11.00;;;9.90;;
24335;SDS011;33098;52.400;16.880;2023-07-29T06:59:51;12.00;;;9.30;;
24335;SDS011;33098;52.400;16.880;2023-07-29T07:02:18;12.20;;;10.30;;
24335;SDS011;33098;52.400;16.880;2023-07-29T07:04:47;13.30;;;10.90;;
24335;SDS011;33098;52.400;16.880;2023-07-29T07:07:15;13.60;;;10.10;;
24335;SDS011;33098;52.400;16.880;2023-07-29T07:09:42;14.80;;;11.00;;
24335;SDS011;33098;52.400;16.880;2023-07-29T07:12:09;13.30;;;10.80;;
24335;SDS011;33098;52.400;16.880;2023-07-29T07:14:36;13.00;;;10.30;;
24335;SDS011;33098;52.400;16.880;2023-07-29T07:17:04;11.70;;;9.70;;
24335;SDS011;33098;52.400;16.880;2023-07-29T07:19:31;10.30;;;8.80;;
24335;SDS011;33098;52.400;16.880;2023-07-29T07:21:58;12.60;;;9.90;;
24335;SDS011;33098;52.400;16.880;2023-07-29T07:24:24;11.70;;;9.30;;
24335;SDS011;33098;52.400;16.880;2023-07-29T07:26:51;11.00;;;9.50;;
24335;SDS011;33098;52.400;16.880;2023-07-29T07:29:17;9.70;;;8.70;;
24335;SDS011;33098;52.400;16.880;2023-07-29T07:31:49;12.20;;;9.20;;
24335;SDS011;33098;52.400;16.880;2023-07-29T07:34:19;9.40;;;7.80;;
24335;SDS011;33098;52.400;16.880;2023-07-29T07:36:46;8.10;;;7.30;;
24335;SDS011;33098;52.400;16.880;2023-07-29T07:39:13;8.70;;;7.80;;
24335;SDS011;33098;52.400;16.880;2023-07-29T07:41:40;8.10;;;7.20;;
24335;SDS011;33098;52.400;16.880;2023-07-29T07:44:11;7.30;;;6.60;;
24335;SDS011;33098;52.400;16.880;2023-07-29T07:46:41;8.80;;;6.30;;
24335;SDS011;33098;52.400;16.880;2023-07-29T07:49:08;5.90;;;5.30;;
24335;SDS011;33098;52.400;16.880;2023-07-29T07:51:35;6.60;;;5.90;;
24335;SDS011;33098;52.400;16.880;2023-07-29T07:54:01;6.50;;;5.90;;
24335;SDS011;33098;52.400;16.880;2023-07-29T07:56:28;6.50;;;5.90;;
24335;SDS011;33098;52.400;16.880;2023-07-29T07:58:55;7.60;;;6.00;;
24335;SDS011;33098;52.400;16.880;2023-07-29T08:01:22;5.40;;;5.00;;
24335;SDS011;33098;52.400;16.880;2023-07-29T08:03:48;5.20;;;4.70;;
24335;SDS011;33098;52.400;16.880;2023-07-29T08:06:15;4.20;;;3.50;;
24335;SDS011;33098;52.400;16.880;2023-07-29T08:08:41;3.90;;;3.60;;
24335;SDS011;33098;52.400;16.880;2023-07-29T08:11:08;6.00;;;4.70;;
24335;SDS011;33098;52.400;16.880;2023-07-29T08:13:35;5.10;;;4.60;;
24335;SDS011;33098;52.400;16.880;2023-07-29T08:16:01;6.60;;;4.40;;
24335;SDS011;33098;52.400;16.880;2023-07-29T08:18:28;4.70;;;4.20;;
24335;SDS011;33098;52.400;16.880;2023-07-29T08:20:56;5.00;;;4.60;;
24335;SDS011;33098;52.400;16.880;2023-07-29T08:23:30;5.60;;;4.40;;
24335;SDS011;33098;52.400;16.880;2023-07-29T08:25:59;4.10;;;3.70;;
24335;SDS011;33098;52.400;16.880;2023-07-29T08:28:32;3.80;;;3.50;;
24335;SDS011;33098;52.400;16.880;2023-07-29T08:31:01;4.10;;;3.80;;
24335;SDS011;33098;52.400;16.880;2023-07-29T08:33:28;3.80;;;3.50;;
24335;SDS011;33098;52.400;16.880;2023-07-29T08:35:55;3.50;;;3.10;;
24335;SDS011;33098;52.400;16.880;2023-07-29T08:38:22;5.40;;;3.60;;
24335;SDS011;33098;52.400;16.880;2023-07-29T08:40:56;3.50;;;3.20;;
24335;SDS011;33098;52.400;16.880;2023-07-29T08:46:35;6.80;;;4.40;;
24335;SDS011;33098;52.400;16.880;2023-07-29T08:49:03;5.40;;;3.90;;
24335;SDS011;33098;52.400;16.880;2023-07-29T08:51:31;3.80;;;3.50;;
24335;SDS011;33098;52.400;16.880;2023-07-29T08:53:59;4.10;;;3.70;;
24335;SDS011;33098;52.400;16.880;2023-07-29T08:56:27;3.70;;;3.30;;
24335;SDS011;33098;52.400;16.880;2023-07-29T08:58:57;4.30;;;3.50;;
24335;SDS011;33098;52.400;16.880;2023-07-29T09:01:28;4.30;;;3.40;;
24335;SDS011;33098;52.400;16.880;2023-07-29T09:03:57;3.90;;;3.60;;
24335;SDS011;33098;52.400;16.880;2023-07-29T09:06:24;3.90;;;3.40;;
24335;SDS011;33098;52.400;16.880;2023-07-29T09:08:54;4.60;;;3.60;;
24335;SDS011;33098;52.400;16.880;2023-07-29T09:11:23;3.70;;;3.20;;
24335;SDS011;33098;52.400;16.880;2023-07-29T09:13:55;3.40;;;2.80;;
24335;SDS011;33098;52.400;16.880;2023-07-29T09:16:23;4.50;;;3.60;;
24335;SDS011;33098;52.400;16.880;2023-07-29T09:18:52;3.50;;;3.10;;
24335;SDS011;33098;52.400;16.880;2023-07-29T09:21:23;5.20;;;3.10;;
24335;SDS011;33098;52.400;16.880;2023-07-29T09:23:55;3.30;;;3.00;;
24335;SDS011;33098;52.400;16.880;2023-07-29T09:26:26;4.60;;;2.80;;
24335;SDS011;33098;52.400;16.880;2023-07-29T09:28:56;3.90;;;3.10;;
24335;SDS011;33098;52.400;16.880;2023-07-29T09:31:27;3.20;;;2.90;;
24335;SDS011;33098;52.400;16.880;2023-07-29T09:33:58;3.50;;;3.10;;
24335;SDS011;33098;52.400;16.880;2023-07-29T09:36:26;4.40;;;2.70;;
24335;SDS011;33098;52.400;16.880;2023-07-29T09:38:54;2.70;;;2.50;;
24335;SDS011;33098;52.400;16.880;2023-07-29T09:41:27;4.80;;;2.80;;
24335;SDS011;33098;52.400;16.880;2023-07-29T09:43:59;3.30;;;3.00;;
24335;SDS011;33098;52.400;16.880;2023-07-29T09:46:36;5.20;;;2.90;;
24335;SDS011;33098;52.400;16.880;2023-07-29T09:49:07;2.90;;;2.70;;
24335;SDS011;33098;52.400;16.880;2023-07-29T09:51:40;2.90;;;2.70;;
24335;SDS011;33098;52.400;16.880;2023-07-29T09:54:14;5.30;;;2.80;;
24335;SDS011;33098;52.400;16.880;2023-07-29T09:56:47;3.40;;;3.10;;
24335;SDS011;33098;52.400;16.880;2023-07-29T09:59:18;3.10;;;2.90;;
24335;SDS011;33098;52.400;16.880;2023-07-29T10:01:45;3.30;;;3.00;;
24335;SDS011;33098;52.400;16.880;2023-07-29T10:04:12;3.20;;;2.80;;
24335;SDS011;33098;52.400;16.880;2023-07-29T10:06:43;3.30;;;2.90;;
24335;SDS011;33098;52.400;16.880;2023-07-29T10:09:11;5.70;;;2.70;;
24335;SDS011;33098;52.400;16.880;2023-07-29T10:11:39;3.60;;;3.00;;
24335;SDS011;33098;52.400;16.880;2023-07-29T10:14:06;4.60;;;3.20;;
24335;SDS011;33098;52.400;16.880;2023-07-29T10:16:34;3.60;;;3.10;;
24335;SDS011;33098;52.400;16.880;2023-07-29T10:19:02;3.60;;;2.90;;
24335;SDS011;33098;52.400;16.880;2023-07-29T10:21:31;3.60;;;3.20;;
24335;SDS011;33098;52.400;16.880;2023-07-29T10:24:03;3.30;;;3.10;;
24335;SDS011;33098;52.400;16.880;2023-07-29T10:26:33;4.50;;;3.30;;
24335;SDS011;33098;52.400;16.880;2023-07-29T10:29:04;4.00;;;2.80;;
24335;SDS011;33098;52.400;16.880;2023-07-29T10:31:38;3.70;;;3.30;;
24335;SDS011;33098;52.400;16.880;2023-07-29T10:34:09;2.90;;;2.70;;
24335;SDS011;33098;52.400;16.880;2023-07-29T10:36:37;3.50;;;3.20;;
24335;SDS011;33098;52.400;16.880;2023-07-29T10:39:06;3.60;;;2.90;;
24335;SDS011;33098;52.400;16.880;2023-07-29T10:41:55;3.70;;;3.40;;
24335;SDS011;33098;52.400;16.880;2023-07-29T10:50:20;2.80;;;2.20;;
24335;SDS011;33098;52.400;16.880;2023-07-29T10:52:50;2.50;;;2.30;;
24335;SDS011;33098;52.400;16.880;2023-07-29T10:58:08;3.40;;;3.10;;
24335;SDS011;33098;52.400;16.880;2023-07-29T11:00:39;2.60;;;2.40;;
24335;SDS011;33098;52.400;16.880;2023-07-29T11:03:08;2.90;;;2.70;;
24335;SDS011;33098;52.400;16.880;2023-07-29T11:05:44;4.70;;;2.50;;
24335;SDS011;33098;52.400;16.880;2023-07-29T11:08:17;2.50;;;2.30;;
24335;SDS011;33098;52.400;16.880;2023-07-29T11:11:04;3.50;;;2.50;;
24335;SDS011;33098;52.400;16.880;2023-07-29T11:13:36;4.60;;;2.50;;
24335;SDS011;33098;52.400;16.880;2023-07-29T11:16:06;3.20;;;2.70;;
24335;SDS011;33098;52.400;16.880;2023-07-29T11:18:35;3.70;;;2.90;;
24335;SDS011;33098;52.400;16.880;2023-07-29T11:21:03;6.10;;;2.90;;
24335;SDS011;33098;52.400;16.880;2023-07-29T11:23:31;2.80;;;2.50;;
24335;SDS011;33098;52.400;16.880;2023-07-29T11:26:00;5.40;;;2.60;;
24335;SDS011;33098;52.400;16.880;2023-07-29T11:28:28;3.10;;;2.80;;
24335;SDS011;33098;52.400;16.880;2023-07-29T11:30:56;3.10;;;2.60;;
24335;SDS011;33098;52.400;16.880;2023-07-29T11:33:25;3.80;;;2.90;;
24335;SDS011;33098;52.400;16.880;2023-07-29T11:35:54;3.20;;;2.60;;
24335;SDS011;33098;52.400;16.880;2023-07-29T11:38:24;3.50;;;2.70;;
24335;SDS011;33098;52.400;16.880;2023-07-29T11:40:56;3.70;;;2.40;;
24335;SDS011;33098;52.400;16.880;2023-07-29T11:43:24;4.70;;;3.10;;
24335;SDS011;33098;52.400;16.880;2023-07-29T11:45:53;2.90;;;2.50;;
24335;SDS011;33098;52.400;16.880;2023-07-29T11:48:30;2.40;;;2.20;;
24335;SDS011;33098;52.400;16.880;2023-07-29T11:50:59;2.30;;;2.10;;
24335;SDS011;33098;52.400;16.880;2023-07-29T11:53:28;2.30;;;2.10;;
24335;SDS011;33098;52.400;16.880;2023-07-29T11:55:57;2.90;;;2.50;;
24335;SDS011;33098;52.400;16.880;2023-07-29T11:58:25;2.60;;;2.40;;
24335;SDS011;33098;52.400;16.880;2023-07-29T12:00:53;2.70;;;2.50;;
24335;SDS011;33098;52.400;16.880;2023-07-29T12:03:20;2.60;;;2.40;;
24335;SDS011;33098;52.400;16.880;2023-07-29T12:05:47;2.40;;;2.20;;
24335;SDS011;33098;52.400;16.880;2023-07-29T12:08:15;2.10;;;2.00;;
24335;SDS011;33098;52.400;16.880;2023-07-29T12:10:43;2.40;;;2.20;;
24335;SDS011;33098;52.400;16.880;2023-07-29T12:13:10;2.60;;;2.40;;
24335;SDS011;33098;52.400;16.880;2023-07-29T12:15:37;3.80;;;2.80;;
24335;SDS011;33098;52.400;16.880;2023-07-29T12:18:06;2.90;;;2.70;;
24335;SDS011;33098;52.400;16.880;2023-07-29T12:20:38;4.70;;;2.80;;
24335;SDS011;33098;52.400;16.880;2023-07-29T12:23:05;2.90;;;2.40;;
24335;SDS011;33098;52.400;16.880;2023-07-29T12:25:34;4.70;;;2.40;;
24335;SDS011;33098;52.400;16.880;2023-07-29T12:28:05;2.40;;;2.10;;
24335;SDS011;33098;52.400;16.880;2023-07-29T12:30:33;3.50;;;2.40;;
24335;SDS011;33098;52.400;16.880;2023-07-29T12:33:00;2.30;;;2.10;;
24335;SDS011;33098;52.400;16.880;2023-07-29T12:35:37;3.80;;;2.10;;
24335;SDS011;33098;52.400;16.880;2023-07-29T12:38:04;4.40;;;2.40;;
24335;SDS011;33098;52.400;16.880;2023-07-29T12:40:31;3.20;;;2.10;;
24335;SDS011;33098;52.400;16.880;2023-07-29T12:45:27;1.90;;;1.70;;
24335;SDS011;33098;52.400;16.880;2023-07-29T12:48:03;2.10;;;1.90;;
24335;SDS011;33098;52.400;16.880;2023-07-29T12:50:30;2.90;;;2.10;;
24335;SDS011;33098;52.400;16.880;2023-07-29T12:52:58;2.30;;;1.90;;
24335;SDS011;33098;52.400;16.880;2023-07-29T12:55:24;2.30;;;2.10;;
24335;SDS011;33098;52.400;16.880;2023-07-29T12:57:56;1.70;;;1.60;;
24335;SDS011;33098;52.400;16.880;2023-07-29T13:00:24;2.10;;;1.70;;
24335;SDS011;33098;52.400;16.880;2023-07-29T13:02:52;2.50;;;2.30;;
24335;SDS011;33098;52.400;16.880;2023-07-29T13:05:21;3.10;;;2.20;;
24335;SDS011;33098;52.400;16.880;2023-07-29T13:07:48;2.10;;;1.80;;
24335;SDS011;33098;52.400;16.880;2023-07-29T13:10:15;2.50;;;2.10;;
24335;SDS011;33098;52.400;16.880;2023-07-29T13:12:42;2.80;;;1.80;;
24335;SDS011;33098;52.400;16.880;2023-07-29T13:15:10;2.10;;;1.90;;
24335;SDS011;33098;52.400;16.880;2023-07-29T13:20:08;4.70;;;2.00;;
24335;SDS011;33098;52.400;16.880;2023-07-29T13:22:35;2.30;;;2.10;;
24335;SDS011;33098;52.400;16.880;2023-07-29T13:25:03;2.90;;;2.10;;
24335;SDS011;33098;52.400;16.880;2023-07-29T13:27:31;3.90;;;1.80;;
24335;SDS011;33098;52.400;16.880;2023-07-29T13:29:58;4.00;;;2.10;;
24335;SDS011;33098;52.400;16.880;2023-07-29T13:32:25;1.90;;;1.80;;
24335;SDS011;33098;52.400;16.880;2023-07-29T13:34:52;1.80;;;1.60;;
24335;SDS011;33098;52.400;16.880;2023-07-29T13:37:20;2.20;;;2.00;;
24335;SDS011;33098;52.400;16.880;2023-07-29T13:39:47;2.10;;;1.60;;
24335;SDS011;33098;52.400;16.880;2023-07-29T13:42:14;2.40;;;1.90;;
24335;SDS011;33098;52.400;16.880;2023-07-29T13:44:40;4.20;;;2.00;;
24335;SDS011;33098;52.400;16.880;2023-07-29T13:47:07;4.20;;;1.70;;
24335;SDS011;33098;52.400;16.880;2023-07-29T13:49:34;10.00;;;3.00;;
24335;SDS011;33098;52.400;16.880;2023-07-29T13:52:03;8.90;;;2.60;;
24335;SDS011;33098;52.400;16.880;2023-07-29T13:54:30;5.60;;;2.00;;
24335;SDS011;33098;52.400;16.880;2023-07-29T13:56:57;5.90;;;2.20;;
24335;SDS011;33098;52.400;16.880;2023-07-29T13:59:29;13.40;;;2.90;;
24335;SDS011;33098;52.400;16.880;2023-07-29T14:01:57;51.40;;;7.90;;
24335;SDS011;33098;52.400;16.880;2023-07-29T14:04:24;8.30;;;2.70;;
24335;SDS011;33098;52.400;16.880;2023-07-29T14:06:51;6.00;;;2.90;;
24335;SDS011;33098;52.400;16.880;2023-07-29T14:09:18;4.60;;;3.00;;
24335;SDS011;33098;52.400;16.880;2023-07-29T14:11:48;6.90;;;3.00;;
24335;SDS011;33098;52.400;16.880;2023-07-29T14:14:15;6.10;;;3.20;;
24335;SDS011;33098;52.400;16.880;2023-07-29T14:16:42;4.80;;;3.60;;
24335;SDS011;33098;52.400;16.880;2023-07-29T14:19:10;5.70;;;3.30;;
24335;SDS011;33098;52.400;16.880;2023-07-29T14:21:47;6.20;;;3.00;;
24335;SDS011;33098;52.400;16.880;2023-07-29T14:26:43;4.00;;;2.30;;
24335;SDS011;33098;52.400;16.880;2023-07-29T14:29:10;4.30;;;2.40;;
24335;SDS011;33098;52.400;16.880;2023-07-29T14:31:37;4.60;;;2.20;;
24335;SDS011;33098;52.400;16.880;2023-07-29T14:34:10;5.50;;;2.40;;
24335;SDS011;33098;52.400;16.880;2023-07-29T14:36:36;4.90;;;2.20;;
24335;SDS011;33098;52.400;16.880;2023-07-29T14:39:03;3.30;;;2.10;;
24335;SDS011;33098;52.400;16.880;2023-07-29T14:41:32;3.00;;;2.30;;
24335;SDS011;33098;52.400;16.880;2023-07-29T14:43:59;3.20;;;2.10;;
24335;SDS011;33098;52.400;16.880;2023-07-29T14:46:26;2.40;;;2.10;;
24335;SDS011;33098;52.400;16.880;2023-07-29T14:48:52;7.10;;;2.60;;
24335;SDS011;33098;52.400;16.880;2023-07-29T14:51:19;7.50;;;2.50;;
24335;SDS011;33098;52.400;16.880;2023-07-29T14:53:46;4.50;;;2.40;;
24335;SDS011;33098;52.400;16.880;2023-07-29T14:56:15;4.30;;;2.20;;
24335;SDS011;33098;52.400;16.880;2023-07-29T14:58:44;3.20;;;2.30;;
24335;SDS011;33098;52.400;16.880;2023-07-29T15:01:11;3.40;;;2.20;;
24335;SDS011;33098;52.400;16.880;2023-07-29T15:03:38;4.00;;;2.20;;
24335;SDS011;33098;52.400;16.880;2023-07-29T15:06:05;4.10;;;1.90;;
24335;SDS011;33098;52.400;16.880;2023-07-29T15:08:35;3.10;;;2.00;;
24335;SDS011;33098;52.400;16.880;2023-07-29T15:11:02;5.10;;;2.30;;
24335;SDS011;33098;52.400;16.880;2023-07-29T15:13:28;3.10;;;2.00;;
24335;SDS011;33098;52.400;16.880;2023-07-29T15:16:00;4.50;;;2.10;;
24335;SDS011;33098;52.400;16.880;2023-07-29T15:18:29;6.30;;;2.30;;
24335;SDS011;33098;52.400;16.880;2023-07-29T15:20:56;3.40;;;2.10;;
24335;SDS011;33098;52.400;16.880;2023-07-29T15:23:23;2.00;;;1.90;;